Beauregard Regional Airport
KDRI : now visible

Airfield :











YOU CAN JOIN US ON...

 
LOGIN :

Register | Disclaimer

   EN    FR    IT 

 









Legend :    VFR   Marginal VFR   IFR   Intensive IFR   Very Intensive IFR
Visi :
Ceiling :
>= 8 km
>= 3000ft
5 to 8 km
1000 to 3000 ft
1500m to 5 km
500 to 1000 ft
800 to 1500m
200 to 500 ft
< 800m
< 200 ft
Symbols :   Thunderstorms  Fog  Heavy snow  Heavy precipitations  Wind > 20 kt






- Airport Elevation : 202 ft


KDRI - Beauregard Regional

CURRENT METAR :
  • 091815Z AUTO 00000KT 10SM OVC021 24/19 A2988 RMK AO2 T02410189

EXPIRED METARs :
  • 091755Z AUTO 21006KT 10SM BKN019 OVC025 24/19 A2989 RMK AO2 T02410190 10242 20185
  • 091735Z AUTO 21010G15KT 10SM BKN019 OVC026 24/19 A2990 RMK AO2 T02370190
  • 091715Z AUTO 20008KT 10SM BKN019 OVC026 24/19 A2991 RMK AO2 T02360190
  • 091655Z AUTO 19009G16KT 10SM OVC017 23/19 A2992 RMK AO2 T02340187
  • 091635Z AUTO 20010KT 10SM OVC014 24/20 A2993 RMK AO2 T02390198
  • 091615Z AUTO 20010G16KT 10SM OVC014 23/20 A2993 RMK AO2 T02300197
  • 091555Z AUTO 19008G14KT 10SM OVC010 23/20 A2994 RMK AO2 T02250200
  • 091535Z AUTO 19011KT 10SM OVC008 22/20 A2993 RMK AO2 T02200200
  • 091515Z AUTO 00000KT 10SM OVC008 22/20 A2994 RMK AO2 T02160201

TAF N/A



MET'MAP, your aeronautical weather chart ! - Copyright ORBIFLY December 2007 - Disclaimer

ORBIFLY MET'MAP TEAM :

Programming & Development : Alexandra Zaïnal
Concept & original design : Baudouin d'Aumeries
Assistance for programming : Marc-Olivier Méhu
Technical & hardware support : Manuel Goepfert

Contact : metmap@orbifly.com




SOURCES & CREDITS :

   NOAA       Earth
Advisory